createdAt,value
2023-07-09T00:00:12.707Z,9.668040
2023-07-09T00:01:12.790Z,9.668044
2023-07-09T00:02:13.425Z,9.668075
2023-07-09T00:03:12.599Z,9.667990
2023-07-09T00:04:12.631Z,9.667974
2023-07-09T00:05:12.567Z,9.668020
2023-07-09T00:06:12.568Z,9.668015
2023-07-09T00:07:12.532Z,9.667999
2023-07-09T00:08:45.589Z,9.668056
2023-07-09T00:09:12.560Z,9.668061
2023-07-09T00:10:12.555Z,9.668051
2023-07-09T00:11:12.567Z,9.668039
2023-07-09T00:12:14.581Z,9.668007
2023-07-09T00:13:13.488Z,9.668062
2023-07-09T00:14:12.660Z,9.668049
2023-07-09T00:15:12.550Z,9.668043
2023-07-09T00:16:13.170Z,9.667995
2023-07-09T00:17:12.509Z,9.668051
2023-07-09T00:18:12.445Z,9.668094
2023-07-09T00:19:13.077Z,9.668086
2023-07-09T00:20:12.456Z,9.668084
2023-07-09T00:21:12.491Z,9.668077
2023-07-09T00:22:12.532Z,9.668069
2023-07-09T00:23:12.434Z,9.668081
2023-07-09T00:24:13.186Z,9.668066
2023-07-09T00:25:12.506Z,9.668091
2023-07-09T00:26:12.483Z,9.668106
2023-07-09T00:27:12.481Z,9.668150
2023-07-09T00:28:12.505Z,9.668151
2023-07-09T00:29:12.462Z,9.668097
2023-07-09T00:30:12.451Z,9.668098
2023-07-09T00:31:12.487Z,9.668123
2023-07-09T00:32:12.520Z,9.668123
2023-07-09T00:33:12.389Z,9.668064
2023-07-09T00:34:12.393Z,9.668093
2023-07-09T00:35:13.132Z,9.668056
2023-07-09T00:36:12.359Z,9.668088
2023-07-09T00:37:13.121Z,9.668128
2023-07-09T00:38:12.380Z,9.668150
2023-07-09T00:39:13.122Z,9.668118
2023-07-09T00:40:12.396Z,9.668098
2023-07-09T00:41:12.369Z,9.668070
2023-07-09T00:42:13.023Z,9.668051
2023-07-09T00:43:13.151Z,9.668050
2023-07-09T00:44:13.023Z,9.668095
2023-07-09T00:45:12.353Z,9.668107
2023-07-09T00:46:12.319Z,9.668110
2023-07-09T00:47:12.302Z,9.668141
2023-07-09T00:48:12.374Z,9.668118
2023-07-09T00:49:12.280Z,9.668111
2023-07-09T00:50:12.304Z,9.668088
2023-07-09T00:51:12.309Z,9.668152
2023-07-09T00:52:12.233Z,9.668119
2023-07-09T00:53:12.248Z,9.668115
2023-07-09T00:54:12.244Z,9.668122
2023-07-09T00:55:12.240Z,9.668088
2023-07-09T00:56:12.220Z,9.668107
2023-07-09T00:57:12.195Z,9.668132
2023-07-09T00:58:12.254Z,9.668098
2023-07-09T00:59:12.222Z,9.668123
2023-07-09T01:00:12.179Z,9.668138
2023-07-09T01:01:12.277Z,9.668125
2023-07-09T01:02:12.184Z,9.668094
2023-07-09T01:03:12.318Z,9.668119
2023-07-09T01:04:12.151Z,9.668143
2023-07-09T01:05:12.947Z,9.668206
2023-07-09T01:06:12.131Z,9.668159
2023-07-09T01:07:12.094Z,9.668119
2023-07-09T01:08:12.123Z,9.668118
2023-07-09T01:09:12.122Z,9.668180
2023-07-09T01:10:12.111Z,9.668161
2023-07-09T01:11:12.109Z,9.668136
2023-07-09T01:12:12.156Z,9.668110
2023-07-09T01:13:12.087Z,9.668130
2023-07-09T01:14:12.160Z,9.668170
2023-07-09T01:15:12.048Z,9.668153
2023-07-09T01:16:12.133Z,9.668136
2023-07-09T01:17:12.063Z,9.668115
2023-07-09T01:18:12.125Z,9.668097
2023-07-09T01:19:12.069Z,9.668106
2023-07-09T01:20:12.060Z,9.668125
2023-07-09T01:21:12.006Z,9.668139
2023-07-09T01:22:12.013Z,9.668132
2023-07-09T01:23:12.031Z,9.668160
2023-07-09T01:24:12.007Z,9.668173
2023-07-09T01:25:12.034Z,9.668143
2023-07-09T01:26:12.680Z,9.668100
2023-07-09T01:27:12.031Z,9.668146
2023-07-09T01:28:11.994Z,9.668120
2023-07-09T01:29:11.974Z,9.668039
2023-07-09T01:30:12.009Z,9.668087
2023-07-09T01:31:11.991Z,9.668141
2023-07-09T01:32:11.989Z,9.668118
2023-07-09T01:33:11.909Z,9.668145
2023-07-09T01:34:11.887Z,9.668131
2023-07-09T01:35:11.878Z,9.668161
2023-07-09T01:36:11.941Z,9.668113
2023-07-09T01:37:11.882Z,9.668082
2023-07-09T01:38:11.890Z,9.668085
2023-07-09T01:39:11.925Z,9.668114
2023-07-09T01:40:20.618Z,9.668088
2023-07-09T01:41:13.936Z,9.668036
2023-07-09T01:42:11.888Z,9.668024
2023-07-09T01:43:11.885Z,9.668075
2023-07-09T01:44:12.490Z,9.668086
2023-07-09T01:45:11.893Z,9.668097
2023-07-09T01:46:11.884Z,9.668086
2023-07-09T01:47:11.909Z,9.668052
2023-07-09T01:48:11.855Z,9.668091
2023-07-09T01:49:11.821Z,9.668079
2023-07-09T01:50:11.788Z,9.668056
2023-07-09T01:51:11.800Z,9.668047
2023-07-09T01:52:11.834Z,9.668034
2023-07-09T01:53:11.832Z,9.668060
2023-07-09T01:54:11.829Z,9.668011
2023-07-09T01:55:12.661Z,9.668015
2023-07-09T01:56:11.833Z,9.668051
2023-07-09T01:57:12.644Z,9.668037
2023-07-09T01:58:11.751Z,9.668037
2023-07-09T01:59:11.784Z,9.668044
2023-07-09T02:00:11.858Z,9.668073
2023-07-09T02:01:12.711Z,9.668077
2023-07-09T02:02:11.804Z,9.668019
2023-07-09T02:03:11.726Z,9.668030
2023-07-09T02:04:12.743Z,9.668015
2023-07-09T02:05:11.735Z,9.668031
2023-07-09T02:06:11.760Z,9.667969
2023-07-09T02:07:11.691Z,9.667991
2023-07-09T02:08:11.715Z,9.668015
2023-07-09T02:09:12.746Z,9.668036
2023-07-09T02:10:11.696Z,9.668069
2023-07-09T02:11:11.679Z,9.668054
2023-07-09T02:12:11.693Z,9.668019
2023-07-09T02:13:11.688Z,9.667997
2023-07-09T02:14:12.086Z,9.668021
2023-07-09T02:15:11.661Z,9.668064
2023-07-09T02:16:13.224Z,9.668075
2023-07-09T02:17:12.192Z,9.668105
2023-07-09T02:18:11.654Z,9.668085
2023-07-09T02:19:11.614Z,9.668098
2023-07-09T02:20:11.577Z,9.668043
2023-07-09T02:21:11.572Z,9.668012
2023-07-09T02:22:11.601Z,9.668036
2023-07-09T02:23:12.567Z,9.668110
2023-07-09T02:24:11.562Z,9.668077
2023-07-09T02:25:12.478Z,9.668088
2023-07-09T02:26:11.589Z,9.668069
2023-07-09T02:27:11.565Z,9.668022
2023-07-09T02:28:12.503Z,9.668035
2023-07-09T02:29:11.663Z,9.668008
2023-07-09T02:30:11.596Z,9.668001
2023-07-09T02:31:11.548Z,9.667998
2023-07-09T02:32:12.165Z,9.668040
2023-07-09T02:33:11.583Z,9.668022
2023-07-09T02:34:15.596Z,9.668031
2023-07-09T02:35:37.005Z,9.667989
2023-07-09T02:36:42.943Z,9.668025
2023-07-09T02:37:24.981Z,9.667999
2023-07-09T02:38:30.036Z,9.667977
2023-07-09T02:39:44.017Z,9.667991
2023-07-09T02:40:19.473Z,9.667996
2023-07-09T02:41:40.461Z,9.668039
2023-07-09T02:42:23.025Z,9.668056
2023-07-09T02:43:53.540Z,9.668017
2023-07-09T02:44:43.439Z,9.668042
2023-07-09T02:45:37.811Z,9.668021
2023-07-09T02:46:28.951Z,9.668030
2023-07-09T02:47:11.415Z,9.668023
2023-07-09T02:48:11.358Z,9.668049
2023-07-09T02:49:11.353Z,9.668060
2023-07-09T02:50:11.364Z,9.668037
2023-07-09T02:51:11.322Z,9.668026
2023-07-09T02:52:11.364Z,9.668028
2023-07-09T02:53:11.308Z,9.668055
2023-07-09T02:54:11.365Z,9.668027
2023-07-09T02:55:11.328Z,9.668064
2023-07-09T02:56:11.316Z,9.668036
2023-07-09T02:57:11.321Z,9.668098
2023-07-09T02:58:11.333Z,9.667994
2023-07-09T02:59:11.269Z,9.667982
2023-07-09T03:00:11.394Z,9.668032
2023-07-09T03:01:11.254Z,9.668016
2023-07-09T03:02:11.490Z,9.668088
2023-07-09T03:03:11.314Z,9.667996
2023-07-09T03:04:12.163Z,9.668003
2023-07-09T03:05:11.283Z,9.668009
2023-07-09T03:06:12.211Z,9.668019
2023-07-09T03:07:11.361Z,9.668046
2023-07-09T03:08:11.232Z,9.668050
2023-07-09T03:09:11.226Z,9.668040
2023-07-09T03:10:12.202Z,9.668070
2023-07-09T03:11:11.204Z,9.668031
2023-07-09T03:12:11.238Z,9.668036
2023-07-09T03:13:12.175Z,9.668043
2023-07-09T03:14:11.352Z,9.667980
2023-07-09T03:15:11.145Z,9.667956
2023-07-09T03:16:11.138Z,9.667979
2023-07-09T03:17:11.111Z,9.667999
2023-07-09T03:18:11.110Z,9.668006
2023-07-09T03:19:11.188Z,9.667971
2023-07-09T03:20:11.710Z,9.668022
2023-07-09T03:21:11.134Z,9.668003
2023-07-09T03:22:11.203Z,9.668013
2023-07-09T03:23:11.145Z,9.667992
2023-07-09T03:24:11.109Z,9.668011
2023-07-09T03:25:11.958Z,9.668001
2023-07-09T03:26:11.144Z,9.668011
2023-07-09T03:27:11.700Z,9.667974
2023-07-09T03:28:11.034Z,9.667962
2023-07-09T03:29:11.146Z,9.668046
2023-07-09T03:30:11.043Z,9.668027
2023-07-09T03:31:11.024Z,9.668036
2023-07-09T03:32:11.192Z,9.668004
2023-07-09T03:33:12.065Z,9.668014
2023-07-09T03:34:11.715Z,9.667996
2023-07-09T03:35:11.530Z,9.668082
2023-07-09T03:36:11.083Z,9.668112
2023-07-09T03:37:11.523Z,9.668050
2023-07-09T03:38:11.003Z,9.668067
2023-07-09T03:39:11.018Z,9.668087
2023-07-09T03:40:10.949Z,9.668028
2023-07-09T03:41:10.952Z,9.667983
2023-07-09T03:42:12.703Z,9.668035
2023-07-09T03:43:10.978Z,9.668023
2023-07-09T03:44:10.949Z,9.668002
2023-07-09T03:45:10.953Z,9.668015
2023-07-09T03:46:10.917Z,9.668045
2023-07-09T03:47:11.057Z,9.668051
2023-07-09T04:04:53.480Z,9.668201
2023-07-09T04:05:53.400Z,9.668025
2023-07-09T04:06:53.328Z,9.668044
2023-07-09T04:07:53.328Z,9.668056
2023-07-09T04:08:53.357Z,9.668012
2023-07-09T04:09:53.385Z,9.668038
2023-07-09T04:10:53.362Z,9.668113
2023-07-09T04:11:53.295Z,9.668075
2023-07-09T04:12:53.312Z,9.668043
2023-07-09T04:13:53.370Z,9.668070
2023-07-09T04:14:53.344Z,9.668060
2023-07-09T04:15:54.495Z,9.668083
2023-07-09T04:16:53.976Z,9.668100
2023-07-09T04:17:53.289Z,9.668127
2023-07-09T04:18:53.356Z,9.668146
2023-07-09T04:19:53.332Z,9.668169
2023-07-09T04:20:53.241Z,9.668056
2023-07-09T04:21:53.220Z,9.668056
2023-07-09T04:22:53.253Z,9.668083
2023-07-09T04:23:53.224Z,9.668023
2023-07-09T04:24:53.236Z,9.668026
2023-07-09T04:25:53.345Z,9.668045
2023-07-09T04:26:53.213Z,9.668037
2023-07-09T04:27:53.210Z,9.667979
2023-07-09T04:28:53.192Z,9.667958
2023-07-09T04:29:53.267Z,9.668024
2023-07-09T04:30:53.173Z,9.668027
2023-07-09T04:31:53.276Z,9.668022
2023-07-09T04:32:53.219Z,9.668044
2023-07-09T04:33:53.163Z,9.668042
2023-07-09T04:34:53.129Z,9.667975
2023-07-09T04:35:53.122Z,9.668000
2023-07-09T04:36:53.142Z,9.667944
2023-07-09T04:37:53.098Z,9.667982
2023-07-09T04:38:53.090Z,9.668019
2023-07-09T04:39:53.101Z,9.668020
2023-07-09T04:40:53.110Z,9.667949
2023-07-09T04:41:54.116Z,9.667971
2023-07-09T04:42:53.144Z,9.667933
2023-07-09T04:43:53.129Z,9.667975
2023-07-09T04:44:53.221Z,9.667974
2023-07-09T04:45:53.120Z,9.667998
2023-07-09T04:46:53.076Z,9.668021
2023-07-09T04:47:53.110Z,9.668029
2023-07-09T04:48:53.049Z,9.668002
2023-07-09T04:49:53.027Z,9.668025
2023-07-09T04:50:53.046Z,9.667986
2023-07-09T04:51:53.012Z,9.668019
2023-07-09T04:52:53.073Z,9.668010
2023-07-09T04:53:53.029Z,9.668008
2023-07-09T04:54:53.056Z,9.667996
2023-07-09T04:55:53.036Z,9.668012
2023-07-09T04:56:53.126Z,9.668028
2023-07-09T04:57:52.991Z,9.668053
2023-07-09T04:58:52.986Z,9.668068
2023-07-09T04:59:52.976Z,9.668056
2023-07-09T05:00:53.029Z,9.668005
2023-07-09T05:01:52.991Z,9.668068
2023-07-09T05:02:52.968Z,9.668020
2023-07-09T05:03:52.955Z,9.668065
2023-07-09T05:04:52.940Z,9.668087
2023-07-09T05:05:52.876Z,9.668038
2023-07-09T05:06:52.893Z,9.668044
2023-07-09T05:07:53.036Z,9.668044
2023-07-09T05:08:52.895Z,9.668064
2023-07-09T05:09:52.872Z,9.668042
2023-07-09T05:10:53.874Z,9.668083
2023-07-09T05:11:52.883Z,9.668049
2023-07-09T05:12:53.522Z,9.668030
2023-07-09T05:13:54.275Z,9.668056
2023-07-09T05:14:54.476Z,9.668010
2023-07-09T05:15:52.880Z,9.668054
2023-07-09T05:16:52.823Z,9.668051
2023-07-09T05:18:25.353Z,9.668028
2023-07-09T05:18:53.499Z,9.668011
2023-07-09T05:19:52.797Z,9.668027
2023-07-09T05:20:52.748Z,9.667968
2023-07-09T05:21:52.771Z,9.667923
2023-07-09T05:22:53.475Z,9.667934
2023-07-09T05:23:52.813Z,9.667949
2023-07-09T05:24:53.520Z,9.667979
2023-07-09T05:25:52.816Z,9.667996
2023-07-09T05:26:53.264Z,9.667974
2023-07-09T05:27:52.755Z,9.668021
2023-07-09T05:28:52.743Z,9.668000
2023-07-09T05:29:52.711Z,9.667997
2023-07-09T05:30:52.754Z,9.668028
2023-07-09T05:31:52.727Z,9.668001
2023-07-09T05:32:52.729Z,9.667970
2023-07-09T05:33:52.710Z,9.667961
2023-07-09T05:34:52.720Z,9.667969
2023-07-09T05:35:52.710Z,9.667991
2023-07-09T05:36:52.712Z,9.667992
2023-07-09T05:37:52.748Z,9.667955
2023-07-09T05:38:52.709Z,9.667972
2023-07-09T05:39:52.659Z,9.667982
2023-07-09T05:40:52.656Z,9.667997
2023-07-09T05:41:52.646Z,9.668003
2023-07-09T05:42:52.634Z,9.667981
2023-07-09T05:43:52.663Z,9.667984
2023-07-09T05:44:52.645Z,9.667974
2023-07-09T05:45:52.643Z,9.668014
2023-07-09T05:46:52.650Z,9.667983
2023-07-09T05:47:52.574Z,9.667974
2023-07-09T05:48:53.380Z,9.667996
2023-07-09T05:49:53.717Z,9.668010
2023-07-09T05:50:52.578Z,9.667989
2023-07-09T05:51:52.622Z,9.668034
2023-07-09T05:52:52.594Z,9.668000
2023-07-09T05:53:52.597Z,9.667979
2023-07-09T05:54:52.566Z,9.667992
2023-07-09T05:55:52.528Z,9.667989
2023-07-09T05:56:52.571Z,9.667980
2023-07-09T05:58:24.422Z,9.667976
2023-07-09T05:58:52.478Z,9.667990
2023-07-09T05:59:52.465Z,9.667986
2023-07-09T06:00:52.502Z,9.667980
2023-07-09T06:01:54.912Z,9.667988
2023-07-09T06:02:53.129Z,9.667996
2023-07-09T06:03:53.128Z,9.667978
2023-07-09T06:04:52.496Z,9.668004
2023-07-09T06:05:52.497Z,9.667998
2023-07-09T06:06:52.502Z,9.668002
2023-07-09T06:07:53.482Z,9.667986
2023-07-09T06:08:52.488Z,9.667956
2023-07-09T06:09:52.465Z,9.668025
2023-07-09T06:10:52.447Z,9.668010
2023-07-09T06:11:52.418Z,9.668010
2023-07-09T06:12:52.435Z,9.667995
2023-07-09T06:13:52.489Z,9.667993
2023-07-09T06:14:52.458Z,9.667985
2023-07-09T06:15:52.443Z,9.668007
2023-07-09T06:16:52.487Z,9.667980
2023-07-09T06:17:52.517Z,9.667998
2023-07-09T06:18:52.459Z,9.668017
2023-07-09T06:19:52.452Z,9.667998
2023-07-09T06:20:52.399Z,9.668012
2023-07-09T06:21:52.403Z,9.668026
2023-07-09T06:22:52.317Z,9.668013
2023-07-09T06:23:52.342Z,9.668034
2023-07-09T06:24:52.360Z,9.668026
2023-07-09T06:25:52.316Z,9.667994
2023-07-09T06:26:52.317Z,9.667968
2023-07-09T06:27:52.551Z,9.667945
2023-07-09T06:28:52.343Z,9.667968
2023-07-09T06:29:52.375Z,9.667988
2023-07-09T06:30:53.190Z,9.667994
2023-07-09T06:31:52.287Z,9.667986
2023-07-09T06:32:52.381Z,9.667997
2023-07-09T06:33:52.283Z,9.668009
2023-07-09T06:34:52.371Z,9.668011
2023-07-09T06:35:52.286Z,9.667994
2023-07-09T06:36:52.320Z,9.667963
2023-07-09T06:37:52.250Z,9.667935
2023-07-09T06:38:52.201Z,9.667962
2023-07-09T06:39:52.312Z,9.667984
2023-07-09T06:40:52.220Z,9.667984
2023-07-09T06:41:52.232Z,9.667975
2023-07-09T06:42:53.024Z,9.668062
2023-07-09T06:43:52.323Z,9.668019
2023-07-09T06:44:52.895Z,9.668015
2023-07-09T06:45:52.242Z,9.668043
2023-07-09T06:46:52.297Z,9.668016
2023-07-09T06:47:52.305Z,9.667998
2023-07-09T06:48:52.226Z,9.668034
2023-07-09T06:49:52.186Z,9.668010
2023-07-09T06:50:52.146Z,9.668003
2023-07-09T06:51:52.191Z,9.667983
2023-07-09T06:52:52.137Z,9.667974
2023-07-09T06:53:52.136Z,9.667937
2023-07-09T06:54:52.102Z,9.667947
2023-07-09T06:55:52.144Z,9.667971
2023-07-09T06:56:53.050Z,9.667975
2023-07-09T06:57:52.072Z,9.667994
2023-07-09T06:58:52.175Z,9.668004
2023-07-09T06:59:53.071Z,9.667994
2023-07-09T07:00:52.116Z,9.667997
2023-07-09T07:01:52.158Z,9.667974
2023-07-09T07:02:53.095Z,9.667964
2023-07-09T07:03:52.131Z,9.667978
2023-07-09T07:04:52.041Z,9.668006
2023-07-09T07:05:52.950Z,9.668007
2023-07-09T07:06:52.055Z,9.668038
2023-07-09T07:07:52.030Z,9.667972
2023-07-09T07:08:52.917Z,9.668014
2023-07-09T07:09:52.062Z,9.668030
2023-07-09T07:10:52.033Z,9.668028
2023-07-09T07:11:52.025Z,9.668029
2023-07-09T07:12:52.030Z,9.668043
2023-07-09T07:13:52.159Z,9.668025
2023-07-09T07:14:52.574Z,9.668029
2023-07-09T07:15:52.013Z,9.667997
2023-07-09T07:16:51.994Z,9.668041
2023-07-09T07:17:52.207Z,9.668055
2023-07-09T07:18:52.024Z,9.668027
2023-07-09T07:19:53.072Z,9.667992
2023-07-09T07:20:51.942Z,9.668023
2023-07-09T07:21:52.949Z,9.668027
2023-07-09T07:22:51.973Z,9.668007
2023-07-09T07:23:53.826Z,9.668014
2023-07-09T07:24:52.939Z,9.668025
2023-07-09T07:25:52.040Z,9.668092
2023-07-09T07:26:51.901Z,9.668006
2023-07-09T07:27:52.639Z,9.668036
2023-07-09T07:28:51.899Z,9.668011
2023-07-09T07:29:51.996Z,9.668031
2023-07-09T07:30:51.863Z,9.667972
2023-07-09T07:31:51.872Z,9.668019
2023-07-09T07:32:51.884Z,9.668003
2023-07-09T07:33:52.832Z,9.668013
2023-07-09T07:34:51.823Z,9.667963
2023-07-09T07:36:16.537Z,9.668015
2023-07-09T07:36:53.907Z,9.668050
2023-07-09T07:37:51.798Z,9.668077
2023-07-09T07:38:51.829Z,9.668064
2023-07-09T07:39:54.486Z,9.668033
2023-07-09T07:40:51.830Z,9.668021
2023-07-09T07:41:51.836Z,9.668015
2023-07-09T07:42:51.847Z,9.668031
2023-07-09T07:43:51.820Z,9.668036
2023-07-09T07:44:51.798Z,9.667993
2023-07-09T07:45:51.804Z,9.668003
2023-07-09T07:46:51.910Z,9.668008
2023-07-09T07:47:51.874Z,9.668034
2023-07-09T07:48:51.760Z,9.668008
2023-07-09T07:49:51.923Z,9.667975
2023-07-09T07:50:51.745Z,9.667944
2023-07-09T07:51:51.749Z,9.667950
2023-07-09T07:52:51.788Z,9.667967
2023-07-09T07:53:51.799Z,9.667994
2023-07-09T07:54:51.710Z,9.667969
2023-07-09T07:55:52.520Z,9.667986
2023-07-09T07:56:51.953Z,9.667958
2023-07-09T07:57:51.790Z,9.667986
2023-07-09T07:58:51.720Z,9.667985
2023-07-09T07:59:53.663Z,9.667970
2023-07-09T08:00:51.659Z,9.667986
2023-07-09T08:01:51.730Z,9.667948
2023-07-09T08:02:51.671Z,9.667909
2023-07-09T08:03:51.725Z,9.667907
2023-07-09T08:04:51.686Z,9.667961
2023-07-09T08:05:51.725Z,9.667943
2023-07-09T08:06:51.630Z,9.667954
2023-07-09T08:07:51.611Z,9.667956
2023-07-09T08:08:51.789Z,9.667937
2023-07-09T08:09:52.602Z,9.667955
2023-07-09T08:10:51.694Z,9.667969
2023-07-09T08:11:52.459Z,9.667958
2023-07-09T08:12:51.626Z,9.667977
2023-07-09T08:13:51.732Z,9.668001
2023-07-09T08:14:51.580Z,9.667990
2023-07-09T08:15:51.612Z,9.667970
2023-07-09T08:16:51.611Z,9.667947
2023-07-09T08:17:51.623Z,9.667973
2023-07-09T08:18:51.630Z,9.667934
2023-07-09T08:19:51.953Z,9.667968
2023-07-09T08:20:51.603Z,9.667978
2023-07-09T08:21:51.572Z,9.667984
2023-07-09T08:22:51.545Z,9.667966
2023-07-09T08:23:51.547Z,9.667969
2023-07-09T08:24:51.536Z,9.667975
2023-07-09T08:25:51.465Z,9.667961
2023-07-09T08:26:52.524Z,9.667971
2023-07-09T08:27:51.478Z,9.667959
2023-07-09T08:29:23.921Z,9.667947
2023-07-09T08:30:25.472Z,9.667976
2023-07-09T08:30:51.420Z,9.667953
2023-07-09T08:31:51.420Z,9.667983
2023-07-09T08:32:51.501Z,9.667948
2023-07-09T08:33:51.420Z,9.667927
2023-07-09T08:35:25.444Z,9.667950
2023-07-09T08:35:53.432Z,9.667961
2023-07-09T08:36:52.016Z,9.667934
2023-07-09T08:37:51.411Z,9.667947
2023-07-09T08:38:51.451Z,9.667955
2023-07-09T08:39:52.189Z,9.667947
2023-07-09T08:40:51.423Z,9.667959
2023-07-09T08:41:53.405Z,9.667947
2023-07-09T08:43:01.590Z,9.667940
2023-07-09T08:43:52.392Z,9.667966
2023-07-09T08:44:52.200Z,9.667970
2023-07-09T08:45:51.376Z,9.667975
2023-07-09T08:46:51.345Z,9.667966
2023-07-09T08:47:51.367Z,9.667953
2023-07-09T08:48:51.313Z,9.667956
2023-07-09T08:49:51.369Z,9.667949
2023-07-09T08:50:52.051Z,9.667954
2023-07-09T08:51:51.933Z,9.667982
2023-07-09T08:52:52.165Z,9.667963
2023-07-09T08:53:51.289Z,9.667967
2023-07-09T08:54:51.298Z,9.667976
2023-07-09T08:55:51.336Z,9.667980
2023-07-09T08:56:51.320Z,9.667980
2023-07-09T08:57:51.300Z,9.667991
2023-07-09T08:58:51.333Z,9.667973
2023-07-09T08:59:51.282Z,9.668013
2023-07-09T09:00:53.568Z,9.667985
2023-07-09T09:01:52.330Z,9.667995
2023-07-09T09:02:51.334Z,9.667973
2023-07-09T09:03:51.286Z,9.668024
2023-07-09T09:04:51.237Z,9.668007
2023-07-09T09:05:51.236Z,9.667945
2023-07-09T09:06:51.219Z,9.668015
2023-07-09T09:07:51.237Z,9.667936
2023-07-09T09:08:51.272Z,9.668012
2023-07-09T09:09:51.244Z,9.667943
2023-07-09T09:10:51.248Z,9.667976
2023-07-09T09:11:51.254Z,9.667974
2023-07-09T09:12:51.253Z,9.667946
2023-07-09T09:13:51.455Z,9.668020
2023-07-09T09:14:51.275Z,9.667931
2023-07-09T09:15:51.454Z,9.667914
2023-07-09T09:16:51.184Z,9.667976
2023-07-09T09:17:51.215Z,9.667955
2023-07-09T09:18:51.154Z,9.668011
2023-07-09T09:19:51.160Z,9.668010
2023-07-09T09:20:51.147Z,9.668004
2023-07-09T09:21:51.157Z,9.668008
2023-07-09T09:22:51.156Z,9.667966
2023-07-09T09:23:51.114Z,9.667988
2023-07-09T09:24:51.149Z,9.668001
2023-07-09T09:25:55.355Z,9.668011
2023-07-09T09:26:53.129Z,9.667972
2023-07-09T09:27:52.193Z,9.667976
2023-07-09T09:28:51.097Z,9.667943
2023-07-09T09:29:51.086Z,9.667940
2023-07-09T09:30:51.106Z,9.667972
2023-07-09T09:31:51.117Z,9.667994
2023-07-09T09:32:51.081Z,9.667986
2023-07-09T09:33:51.086Z,9.668015
2023-07-09T09:34:51.069Z,9.668011
2023-07-09T09:35:51.218Z,9.667998
2023-07-09T09:36:51.944Z,9.667998
2023-07-09T09:37:51.072Z,9.668020
2023-07-09T09:38:52.071Z,9.667987
2023-07-09T09:40:03.260Z,9.667994
2023-07-09T09:40:53.296Z,9.668006
2023-07-09T09:41:51.624Z,9.667986
2023-07-09T09:42:51.018Z,9.667988
2023-07-09T09:43:50.986Z,9.667997
2023-07-09T09:44:51.011Z,9.668009
2023-07-09T09:45:51.074Z,9.668003
2023-07-09T09:46:51.029Z,9.667994
2023-07-09T09:47:51.004Z,9.668045
2023-07-09T09:48:50.977Z,9.668033
2023-07-09T09:49:50.973Z,9.667994
2023-07-09T09:50:51.011Z,9.668003
2023-07-09T09:51:51.040Z,9.667994
2023-07-09T09:52:50.998Z,9.668020
2023-07-09T09:53:51.170Z,9.668069
2023-07-09T09:55:24.099Z,9.668012
2023-07-09T09:55:50.925Z,9.667982
2023-07-09T09:56:50.929Z,9.667959
2023-07-09T09:57:50.880Z,9.667982
2023-07-09T09:59:24.329Z,9.667939
2023-07-09T09:59:51.582Z,9.667994
2023-07-09T10:00:50.948Z,9.667998
2023-07-09T10:01:51.787Z,9.668002
2023-07-09T10:02:51.004Z,9.668013
2023-07-09T10:03:52.764Z,9.667977
2023-07-09T10:04:51.745Z,9.667928
2023-07-09T10:05:50.877Z,9.667973
2023-07-09T10:06:50.892Z,9.667994
2023-07-09T10:07:50.905Z,9.667951
2023-07-09T10:08:50.916Z,9.667953
2023-07-09T10:09:53.056Z,9.667983
2023-07-09T10:10:50.911Z,9.667947
2023-07-09T10:12:23.672Z,9.667976
2023-07-09T10:12:51.346Z,9.668045
2023-07-09T10:13:50.869Z,9.668029
2023-07-09T10:14:50.909Z,9.668056
2023-07-09T10:15:50.844Z,9.668051
2023-07-09T10:16:50.854Z,9.668045
2023-07-09T10:17:50.998Z,9.668011
2023-07-09T10:18:50.939Z,9.668028
2023-07-09T10:19:50.920Z,9.668042
2023-07-09T10:20:50.822Z,9.668009
2023-07-09T10:21:50.807Z,9.668020
2023-07-09T10:22:50.812Z,9.668036
2023-07-09T10:23:51.796Z,9.668009
2023-07-09T10:24:50.769Z,9.667984
2023-07-09T10:25:51.881Z,9.668017
2023-07-09T10:26:50.776Z,9.668028
2023-07-09T10:27:50.854Z,9.668016
2023-07-09T10:28:50.795Z,9.668032
2023-07-09T10:29:51.727Z,9.668042
2023-07-09T10:30:50.880Z,9.668013
2023-07-09T10:31:51.294Z,9.668009
2023-07-09T10:32:50.864Z,9.667993
2023-07-09T10:33:50.745Z,9.668045
2023-07-09T10:34:50.889Z,9.668041
2023-07-09T10:35:50.814Z,9.668025
2023-07-09T10:36:50.714Z,9.668026
2023-07-09T10:37:50.773Z,9.668044
2023-07-09T10:38:50.724Z,9.667999
2023-07-09T10:39:51.589Z,9.668013
2023-07-09T10:40:50.752Z,9.668019
2023-07-09T10:41:51.691Z,9.667997
2023-07-09T10:42:50.727Z,9.668013
2023-07-09T10:43:50.765Z,9.667984
2023-07-09T10:44:52.650Z,9.667935
2023-07-09T10:45:51.670Z,9.667955
2023-07-09T10:46:50.813Z,9.667997
2023-07-09T10:47:50.745Z,9.667966
2023-07-09T10:48:50.711Z,9.667974
2023-07-09T10:49:51.602Z,9.668011
2023-07-09T10:50:50.731Z,9.667981
2023-07-09T10:51:50.694Z,9.667933
2023-07-09T10:52:50.631Z,9.667884
2023-07-09T10:53:53.388Z,9.667823
2023-07-09T10:54:50.657Z,9.667844
2023-07-09T10:55:50.618Z,9.667775
2023-07-09T10:56:51.245Z,9.667948
2023-07-09T10:57:50.635Z,9.668002
2023-07-09T10:58:50.644Z,9.668066
2023-07-09T10:59:51.241Z,9.667968
2023-07-09T11:00:50.654Z,9.667928
2023-07-09T11:01:50.633Z,9.667946
2023-07-09T11:02:50.653Z,9.668066
2023-07-09T11:03:51.328Z,9.668015
2023-07-09T11:04:50.524Z,9.668050
2023-07-09T11:05:50.555Z,9.667995
2023-07-09T11:06:51.738Z,9.668014
2023-07-09T11:07:50.552Z,9.668035
2023-07-09T11:08:51.410Z,9.668011
2023-07-09T11:09:51.200Z,9.668007
2023-07-09T11:10:50.619Z,9.668006
2023-07-09T11:11:50.561Z,9.668001
2023-07-09T11:12:51.304Z,9.668066
2023-07-09T11:13:52.970Z,9.668078
2023-07-09T11:14:51.506Z,9.667976
2023-07-09T11:15:50.626Z,9.667993
2023-07-09T11:16:50.535Z,9.667970
2023-07-09T11:17:50.520Z,9.667967
2023-07-09T11:18:50.483Z,9.667994
2023-07-09T11:19:50.634Z,9.667995
2023-07-09T11:20:50.489Z,9.668024
2023-07-09T11:21:50.442Z,9.668085
2023-07-09T11:22:50.430Z,9.668064
2023-07-09T11:23:50.511Z,9.668081
2023-07-09T11:24:50.444Z,9.668090
2023-07-09T11:25:50.492Z,9.668093
2023-07-09T11:26:51.034Z,9.668086
2023-07-09T11:27:50.434Z,9.668064
2023-07-09T11:28:50.475Z,9.668118
2023-07-09T11:29:51.112Z,9.668090
2023-07-09T11:30:50.422Z,9.668092
2023-07-09T11:31:50.444Z,9.668049
2023-07-09T11:32:50.451Z,9.668006
2023-07-09T11:33:50.433Z,9.667995
2023-07-09T11:34:50.382Z,9.668070
2023-07-09T11:35:50.400Z,9.668089
2023-07-09T11:37:23.827Z,9.668032
2023-07-09T11:37:56.765Z,9.668049
2023-07-09T11:38:50.360Z,9.668069
2023-07-09T11:39:50.694Z,9.668058
2023-07-09T11:40:50.320Z,9.668036
2023-07-09T11:41:50.933Z,9.667999
2023-07-09T11:42:50.391Z,9.668001
2023-07-09T11:43:50.355Z,9.668052
2023-07-09T11:44:50.389Z,9.668013
2023-07-09T11:45:51.215Z,9.668054
2023-07-09T11:46:50.289Z,9.668036
2023-07-09T11:47:50.316Z,9.668048
2023-07-09T11:48:50.342Z,9.668044
2023-07-09T11:49:50.324Z,9.668074
2023-07-09T11:50:50.260Z,9.668060
2023-07-09T11:51:50.257Z,9.668056
2023-07-09T11:52:50.309Z,9.668049
2023-07-09T11:53:50.271Z,9.668012
2023-07-09T11:54:50.414Z,9.668016
2023-07-09T11:55:50.284Z,9.668039
2023-07-09T11:56:50.237Z,9.668054
2023-07-09T11:57:50.230Z,9.668043
2023-07-09T11:58:50.206Z,9.668046
2023-07-09T11:59:50.209Z,9.668022
2023-07-09T12:00:50.262Z,9.668013